Time;durP1;ratioP1;P1;durP2;ratioP2;P2;SDS_P1;SDS_P2;PMS_P1;PMS_P2;Temp;Humidity;BMP_temperature;BMP_pressure;BME280_temperature;BME280_humidity;BME280_pressure;Samples;Min_cycle;Max_cycle;Signal;HPM_P1;HPM_P2
2023/12/05 00:01:19;;;;;;;10.17;7.67;;;;;;;;;;5078549;28;20446;-52
2023/12/05 00:03:46;;;;;;;5.30;4.63;;;;;;;;;;5086852;28;20437;-51
2023/12/05 00:06:14;;;;;;;5.37;4.10;;;;;;;;;;5086073;28;20474;-52
2023/12/05 00:08:42;;;;;;;5.97;4.70;;;;;;;;;;5086194;28;20472;-51
2023/12/05 00:11:10;;;;;;;5.30;4.47;;;;;;;;;;5086239;28;20554;-52
2023/12/05 00:13:37;;;;;;;7.00;5.60;;;;;;;;;;5086445;28;20451;-51
2023/12/05 00:16:05;;;;;;;9.10;8.20;;;;;;;;;;5086173;28;20848;-51
2023/12/05 00:18:32;;;;;;;9.93;8.37;;;;;;;;;;5085915;28;20717;-51
2023/12/05 00:21:00;;;;;;;9.20;8.10;;;;;;;;;;5086048;28;20440;-51
2023/12/05 00:23:27;;;;;;;9.53;8.03;;;;;;;;;;5086129;28;20447;-51
2023/12/05 00:25:56;;;;;;;7.80;7.00;;;;;;;;;;5086281;28;20475;-52
2023/12/05 00:28:23;;;;;;;7.30;5.43;;;;;;;;;;5072172;28;20452;-51
2023/12/05 00:30:50;;;;;;;7.93;7.13;;;;;;;;;;5071730;28;20444;-52
2023/12/05 00:33:18;;;;;;;8.23;6.00;;;;;;;;;;5071998;28;20451;-51
2023/12/05 00:35:45;;;;;;;6.07;5.20;;;;;;;;;;5071686;28;20440;-52
2023/12/05 00:38:12;;;;;;;6.63;5.07;;;;;;;;;;5071617;28;20452;-51
2023/12/05 00:40:40;;;;;;;7.10;6.03;;;;;;;;;;5072495;28;20447;-51
2023/12/05 00:43:08;;;;;;;10.77;9.63;;;;;;;;;;5072225;28;20467;-52
2023/12/05 00:45:36;;;;;;;13.00;10.73;;;;;;;;;;5065639;28;20480;-52
2023/12/05 00:48:03;;;;;;;9.60;8.50;;;;;;;;;;5070352;28;20472;-51
2023/12/05 00:50:30;;;;;;;10.77;9.40;;;;;;;;;;5072390;28;20447;-51
2023/12/05 00:52:58;;;;;;;12.03;7.60;;;;;;;;;;5072058;28;20447;-51
2023/12/05 00:55:25;;;;;;;8.73;7.63;;;;;;;;;;5072327;28;20813;-51
2023/12/05 00:57:52;;;;;;;7.83;7.03;;;;;;;;;;5071353;28;20482;-51
2023/12/05 01:00:21;;;;;;;6.43;5.20;;;;;;;;;;5071936;28;20447;-51
2023/12/05 01:02:49;;;;;;;6.60;4.83;;;;;;;;;;5071793;28;20450;-51
2023/12/05 01:05:16;;;;;;;13.40;7.67;;;;;;;;;;5072077;28;20527;-51
2023/12/05 01:07:44;;;;;;;7.90;7.00;;;;;;;;;;5071986;28;20495;-52
2023/12/05 01:10:11;;;;;;;7.47;6.77;;;;;;;;;;5071540;28;20447;-51
2023/12/05 01:12:39;;;;;;;11.10;8.00;;;;;;;;;;5071914;28;20456;-51
2023/12/05 01:15:07;;;;;;;9.30;6.20;;;;;;;;;;5071392;28;20457;-52
2023/12/05 01:17:36;;;;;;;9.20;7.30;;;;;;;;;;5071722;28;20463;-53
2023/12/05 01:20:06;;;;;;;8.10;6.97;;;;;;;;;;5071348;28;20442;-51
2023/12/05 01:22:34;;;;;;;5.40;4.40;;;;;;;;;;5071618;28;20455;-51
2023/12/05 01:25:01;;;;;;;6.33;5.07;;;;;;;;;;5071403;28;20451;-52
2023/12/05 01:27:28;;;;;;;6.23;5.63;;;;;;;;;;5071246;28;20536;-51
2023/12/05 01:29:56;;;;;;;9.10;8.10;;;;;;;;;;5070169;28;20446;-52
2023/12/05 01:32:23;;;;;;;10.70;8.67;;;;;;;;;;5070894;28;20501;-53
2023/12/05 01:34:52;;;;;;;9.90;8.80;;;;;;;;;;5070478;28;20458;-51
2023/12/05 01:37:19;;;;;;;10.40;9.00;;;;;;;;;;5071096;28;20459;-52
2023/12/05 01:39:46;;;;;;;10.70;8.10;;;;;;;;;;5070179;28;20482;-51
2023/12/05 01:42:14;;;;;;;8.13;7.30;;;;;;;;;;5070290;28;20439;-52
2023/12/05 01:44:41;;;;;;;8.50;7.57;;;;;;;;;;5070331;28;20436;-51
2023/12/05 01:47:10;;;;;;;7.23;6.53;;;;;;;;;;5072460;22;21855;-53
2023/12/05 01:49:37;;;;;;;6.27;5.67;;;;;;;;;;5030893;28;20449;-53
2023/12/05 01:52:06;;;;;;;6.50;5.80;;;;;;;;;;5031611;28;20503;-53
2023/12/05 01:54:34;;;;;;;6.90;5.30;;;;;;;;;;5031416;28;20954;-53
2023/12/05 01:57:02;;;;;;;5.80;4.27;;;;;;;;;;5024217;28;20473;-53
2023/12/05 01:59:29;;;;;;;5.53;4.27;;;;;;;;;;5011550;28;20850;-54
2023/12/05 02:01:56;;;;;;;4.83;4.37;;;;;;;;;;5011404;28;20454;-53
2023/12/05 02:04:24;;;;;;;7.33;6.27;;;;;;;;;;5011950;28;20447;-52
2023/12/05 02:09:25;;;;;;;8.47;7.60;;;;;;;;;;5087842;27;20634;-53
2023/12/05 02:11:52;;;;;;;8.57;7.50;;;;;;;;;;5087517;28;20447;-52
2023/12/05 02:14:20;;;;;;;4.83;3.43;;;;;;;;;;5088095;28;20466;-54
2023/12/05 02:16:52;;;;;;;5.30;3.73;;;;;;;;;;5087714;28;20922;-56
2023/12/05 02:19:42;;;;;;;6.37;4.30;;;;;;;;;;5087348;28;20809;-54
2023/12/05 02:22:12;;;;;;;9.17;7.10;;;;;;;;;;5087882;28;20519;-51
2023/12/05 02:24:48;;;;;;;8.33;6.67;;;;;;;;;;5087783;28;20434;-54
2023/12/05 02:27:18;;;;;;;8.50;6.70;;;;;;;;;;5087410;28;20466;-53
2023/12/05 02:29:51;;;;;;;7.10;5.50;;;;;;;;;;5086883;28;20504;-53
2023/12/05 02:32:18;;;;;;;5.23;4.60;;;;;;;;;;5071655;28;20947;-54
2023/12/05 02:34:45;;;;;;;5.47;4.50;;;;;;;;;;5086553;28;20454;-54
2023/12/05 02:39:56;;;;;;;5.70;4.90;;;;;;;;;;5087663;27;21115;-55
2023/12/05 02:42:24;;;;;;;5.43;4.90;;;;;;;;;;5087943;28;20523;-52
2023/12/05 02:44:51;;;;;;;7.20;5.50;;;;;;;;;;5087539;28;20478;-53
2023/12/05 02:47:21;;;;;;;4.37;3.90;;;;;;;;;;5087644;28;20471;-53
2023/12/05 02:49:48;;;;;;;5.73;4.20;;;;;;;;;;5087023;28;20482;-52
2023/12/05 02:52:16;;;;;;;13.90;9.60;;;;;;;;;;5087769;28;20438;-53
2023/12/05 02:54:43;;;;;;;8.73;6.13;;;;;;;;;;5087893;28;20443;-55
2023/12/05 02:57:12;;;;;;;8.77;6.17;;;;;;;;;;5086866;28;20595;-53
2023/12/05 02:59:39;;;;;;;8.27;7.47;;;;;;;;;;5087536;28;20442;-54
2023/12/05 03:02:07;;;;;;;9.63;7.43;;;;;;;;;;5087480;28;20438;-52
2023/12/05 03:04:34;;;;;;;9.43;7.40;;;;;;;;;;5087640;28;20508;-52
2023/12/05 03:07:01;;;;;;;7.33;6.63;;;;;;;;;;5086875;28;20462;-53
2023/12/05 03:09:28;;;;;;;6.53;5.57;;;;;;;;;;5087018;28;20486;-54
2023/12/05 03:11:56;;;;;;;5.73;5.00;;;;;;;;;;5087097;28;20450;-52
2023/12/05 03:14:24;;;;;;;6.30;5.30;;;;;;;;;;5087287;28;20445;-53
2023/12/05 03:16:52;;;;;;;5.73;4.83;;;;;;;;;;5087099;28;20872;-55
2023/12/05 03:19:19;;;;;;;9.13;7.97;;;;;;;;;;5086682;28;20445;-54
2023/12/05 03:21:47;;;;;;;8.20;7.40;;;;;;;;;;5087098;28;20530;-52
2023/12/05 03:24:14;;;;;;;9.27;8.43;;;;;;;;;;5086947;28;20450;-53
2023/12/05 03:26:41;;;;;;;16.80;13.47;;;;;;;;;;5086885;28;20470;-53
2023/12/05 03:29:08;;;;;;;11.27;10.17;;;;;;;;;;5085699;28;20513;-54
2023/12/05 03:31:37;;;;;;;10.23;8.70;;;;;;;;;;5086409;28;20440;-52
2023/12/05 03:36:40;;;;;;;8.77;7.20;;;;;;;;;;5128764;27;20941;-53
2023/12/05 03:39:08;;;;;;;7.97;6.70;;;;;;;;;;5128352;28;20940;-53
2023/12/05 03:41:35;;;;;;;5.73;5.13;;;;;;;;;;5128940;28;20445;-55
2023/12/05 03:44:02;;;;;;;6.70;5.33;;;;;;;;;;5128583;28;20853;-53
2023/12/05 03:46:30;;;;;;;6.13;4.70;;;;;;;;;;5128047;28;20484;-53
2023/12/05 03:48:57;;;;;;;9.27;7.50;;;;;;;;;;5128022;27;20445;-52
2023/12/05 03:51:24;;;;;;;9.53;8.53;;;;;;;;;;5128189;28;20453;-52
2023/12/05 03:53:53;;;;;;;8.13;7.30;;;;;;;;;;5128217;28;20445;-54
2023/12/05 03:56:20;;;;;;;8.10;7.30;;;;;;;;;;5128419;28;20493;-52
2023/12/05 03:58:48;;;;;;;8.97;8.07;;;;;;;;;;5127885;28;20826;-53
2023/12/05 04:01:15;;;;;;;6.97;6.37;;;;;;;;;;5128246;28;20493;-52
2023/12/05 04:03:43;;;;;;;6.70;6.10;;;;;;;;;;5128013;28;20927;-53
2023/12/05 04:08:45;;;;;;;6.53;4.30;;;;;;;;;;5087534;27;20607;-55
2023/12/05 04:11:13;;;;;;;6.03;5.43;;;;;;;;;;5087809;28;20451;-52
2023/12/05 04:13:40;;;;;;;4.80;4.30;;;;;;;;;;5087673;28;20490;-53
2023/12/05 04:16:08;;;;;;;5.60;4.77;;;;;;;;;;5087617;28;21046;-55
2023/12/05 04:18:35;;;;;;;3.80;3.40;;;;;;;;;;5087088;28;20923;-54
2023/12/05 04:21:02;;;;;;;5.50;4.20;;;;;;;;;;5087485;28;20450;-54
2023/12/05 04:23:30;;;;;;;5.30;4.80;;;;;;;;;;5087775;28;20446;-56
2023/12/05 04:25:58;;;;;;;6.93;6.27;;;;;;;;;;5087416;28;20447;-53
2023/12/05 04:28:26;;;;;;;7.13;6.00;;;;;;;;;;5086877;28;20462;-54
2023/12/05 04:30:53;;;;;;;6.03;5.43;;;;;;;;;;5086138;28;20447;-54
2023/12/05 04:33:20;;;;;;;5.60;4.67;;;;;;;;;;5087338;28;20446;-53
2023/12/05 04:35:48;;;;;;;4.43;3.60;;;;;;;;;;5086730;28;20444;-53
2023/12/05 04:38:15;;;;;;;3.83;3.40;;;;;;;;;;5071210;28;20551;-52
2023/12/05 04:40:43;;;;;;;4.33;3.43;;;;;;;;;;5087278;28;20454;-53
2023/12/05 04:43:11;;;;;;;5.10;4.20;;;;;;;;;;5087229;28;20450;-53
2023/12/05 04:45:40;;;;;;;5.23;4.73;;;;;;;;;;5087013;28;20538;-54
2023/12/05 04:48:07;;;;;;;7.20;6.50;;;;;;;;;;5086396;28;20464;-53
2023/12/05 04:50:35;;;;;;;5.10;4.60;;;;;;;;;;5087190;28;20448;-52
2023/12/05 04:53:02;;;;;;;4.97;4.10;;;;;;;;;;5087027;28;20445;-55
2023/12/05 04:55:29;;;;;;;4.00;3.60;;;;;;;;;;5087068;28;20504;-53
2023/12/05 04:57:57;;;;;;;4.50;3.27;;;;;;;;;;5086372;28;20495;-54
2023/12/05 05:00:25;;;;;;;4.77;3.97;;;;;;;;;;5087462;28;20596;-54
2023/12/05 05:02:53;;;;;;;5.03;4.17;;;;;;;;;;5086974;28;20439;-52
2023/12/05 05:05:20;;;;;;;4.23;3.87;;;;;;;;;;5086784;28;20451;-52
2023/12/05 05:07:47;;;;;;;12.23;11.00;;;;;;;;;;5086277;28;20837;-54
2023/12/05 05:10:15;;;;;;;6.50;5.90;;;;;;;;;;5086575;28;20443;-55
2023/12/05 05:12:42;;;;;;;8.10;5.97;;;;;;;;;;5086386;28;20443;-53
2023/12/05 05:15:10;;;;;;;8.63;6.70;;;;;;;;;;5086571;28;20515;-53
2023/12/05 05:17:38;;;;;;;7.20;6.50;;;;;;;;;;5086723;28;20567;-55
2023/12/05 05:20:06;;;;;;;10.90;6.60;;;;;;;;;;5072620;28;20455;-54
2023/12/05 05:22:34;;;;;;;8.00;7.20;;;;;;;;;;5072932;28;20443;-53
2023/12/05 05:25:02;;;;;;;6.57;5.93;;;;;;;;;;5072877;28;20549;-55
2023/12/05 05:27:30;;;;;;;5.17;4.60;;;;;;;;;;5072633;28;20455;-54
2023/12/05 05:29:57;;;;;;;3.87;3.47;;;;;;;;;;5071787;28;20864;-55
2023/12/05 05:32:25;;;;;;;3.50;3.00;;;;;;;;;;5072275;28;20447;-53
2023/12/05 05:34:53;;;;;;;5.97;4.47;;;;;;;;;;5071761;28;20440;-55
2023/12/05 05:37:21;;;;;;;5.40;4.90;;;;;;;;;;5072311;28;20918;-53
2023/12/05 05:39:48;;;;;;;5.03;3.90;;;;;;;;;;5072036;28;20454;-55
2023/12/05 05:42:15;;;;;;;5.70;4.60;;;;;;;;;;5056399;28;20440;-55
2023/12/05 05:44:44;;;;;;;4.80;4.30;;;;;;;;;;5072178;28;20825;-53
2023/12/05 05:47:11;;;;;;;4.90;3.80;;;;;;;;;;5071607;28;20456;-53
2023/12/05 05:49:38;;;;;;;6.17;4.10;;;;;;;;;;5071393;28;20468;-54
2023/12/05 05:52:07;;;;;;;4.10;3.30;;;;;;;;;;5065830;28;20934;-55
2023/12/05 05:54:34;;;;;;;7.87;6.30;;;;;;;;;;5072569;28;20478;-54
2023/12/05 05:57:01;;;;;;;18.53;12.17;;;;;;;;;;5058242;28;20455;-53
2023/12/05 05:59:29;;;;;;;11.07;8.03;;;;;;;;;;5072234;28;20447;-53
2023/12/05 06:01:56;;;;;;;6.73;5.00;;;;;;;;;;5065583;28;20446;-53
2023/12/05 06:04:23;;;;;;;4.83;4.40;;;;;;;;;;5072093;28;20452;-54
2023/12/05 06:06:51;;;;;;;7.90;4.57;;;;;;;;;;5071625;28;20532;-53
2023/12/05 06:09:19;;;;;;;6.40;5.60;;;;;;;;;;5071669;28;20937;-54
2023/12/05 06:11:47;;;;;;;9.60;7.63;;;;;;;;;;5072388;28;20960;-53
2023/12/05 06:14:14;;;;;;;8.67;7.20;;;;;;;;;;5072045;28;20446;-54
2023/12/05 06:16:41;;;;;;;6.60;5.90;;;;;;;;;;5066328;28;20868;-53
2023/12/05 06:19:09;;;;;;;6.40;5.80;;;;;;;;;;5056383;28;20471;-53
2023/12/05 06:21:36;;;;;;;10.97;7.90;;;;;;;;;;5055510;28;21218;-55
2023/12/05 06:24:03;;;;;;;11.17;7.27;;;;;;;;;;5057545;28;20440;-53
2023/12/05 06:26:32;;;;;;;10.70;6.63;;;;;;;;;;5055679;28;20456;-52
2023/12/05 06:28:59;;;;;;;7.93;5.07;;;;;;;;;;5055963;28;20445;-53
2023/12/05 06:31:27;;;;;;;6.07;3.67;;;;;;;;;;5064076;28;20505;-54
2023/12/05 06:33:54;;;;;;;9.60;8.10;;;;;;;;;;5070603;28;20443;-54
2023/12/05 06:36:22;;;;;;;7.97;7.17;;;;;;;;;;5070886;28;20443;-53
2023/12/05 06:38:49;;;;;;;11.60;10.37;;;;;;;;;;5071305;28;20490;-53
2023/12/05 06:41:17;;;;;;;10.13;6.83;;;;;;;;;;5071193;28;20468;-54
2023/12/05 06:43:46;;;;;;;6.10;4.50;;;;;;;;;;5070897;28;20479;-53
2023/12/05 06:46:13;;;;;;;5.63;5.13;;;;;;;;;;5070520;28;20439;-55
2023/12/05 06:48:42;;;;;;;5.60;4.80;;;;;;;;;;5058423;28;20452;-53
2023/12/05 06:51:10;;;;;;;5.90;4.70;;;;;;;;;;5057890;28;20451;-54
2023/12/05 06:53:37;;;;;;;7.70;6.83;;;;;;;;;;5071346;28;20456;-53
2023/12/05 06:56:05;;;;;;;5.90;4.70;;;;;;;;;;5064903;28;20782;-53
2023/12/05 06:58:33;;;;;;;5.30;4.33;;;;;;;;;;5069969;28;20486;-55
2023/12/05 07:01:02;;;;;;;6.77;4.90;;;;;;;;;;5070749;28;20447;-54
2023/12/05 07:03:29;;;;;;;8.03;5.07;;;;;;;;;;5071320;28;20801;-53
2023/12/05 07:05:57;;;;;;;11.53;8.40;;;;;;;;;;5071225;28;20452;-54
2023/12/05 07:08:24;;;;;;;8.57;7.67;;;;;;;;;;5070528;28;20669;-53
2023/12/05 07:10:51;;;;;;;9.53;8.47;;;;;;;;;;5070899;28;21020;-52
2023/12/05 07:13:18;;;;;;;17.70;10.70;;;;;;;;;;5070852;28;20450;-56
2023/12/05 07:18:20;;;;;;;6.03;4.37;;;;;;;;;;5087723;27;20593;-53
2023/12/05 07:20:47;;;;;;;6.40;5.27;;;;;;;;;;5087727;28;20450;-53
2023/12/05 07:23:14;;;;;;;5.73;4.80;;;;;;;;;;5087354;28;20442;-53
2023/12/05 07:25:42;;;;;;;8.30;5.50;;;;;;;;;;5087396;28;20446;-53
2023/12/05 07:28:10;;;;;;;10.70;6.80;;;;;;;;;;5087568;28;20547;-54
2023/12/05 07:30:37;;;;;;;9.40;8.17;;;;;;;;;;5087845;28;20498;-53
2023/12/05 07:33:05;;;;;;;6.83;6.13;;;;;;;;;;5087697;28;20823;-52
2023/12/05 07:35:33;;;;;;;5.87;5.27;;;;;;;;;;5087635;28;20454;-54
2023/12/05 07:38:01;;;;;;;6.50;5.60;;;;;;;;;;5087046;28;20466;-52
2023/12/05 07:43:02;;;;;;;11.30;6.03;;;;;;;;;;5088118;27;20624;-54
2023/12/05 07:45:29;;;;;;;7.10;4.90;;;;;;;;;;5087487;28;20457;-54
2023/12/05 07:47:57;;;;;;;5.00;4.40;;;;;;;;;;5128452;22;20485;-54
2023/12/05 07:52:59;;;;;;;4.40;3.60;;;;;;;;;;5095882;27;20613;-51
2023/12/05 07:55:26;;;;;;;4.37;3.97;;;;;;;;;;5107573;28;20441;-54
2023/12/05 07:57:53;;;;;;;8.50;7.70;;;;;;;;;;5095730;28;20520;-54
2023/12/05 08:00:21;;;;;;;13.17;9.70;;;;;;;;;;5086691;28;20450;-55
2023/12/05 08:02:48;;;;;;;9.37;8.10;;;;;;;;;;5070629;28;20440;-54
2023/12/05 08:05:16;;;;;;;12.87;10.33;;;;;;;;;;5066942;28;20535;-54
2023/12/05 08:07:43;;;;;;;14.00;9.20;;;;;;;;;;5066620;28;20458;-54
2023/12/05 08:10:12;;;;;;;5.70;5.10;;;;;;;;;;5066525;28;20957;-54
2023/12/05 08:12:39;;;;;;;6.83;4.63;;;;;;;;;;5066748;28;20481;-54
2023/12/05 08:17:41;;;;;;;3.53;3.20;;;;;;;;;;5087479;27;20662;-54
2023/12/05 08:20:09;;;;;;;3.63;2.90;;;;;;;;;;5087095;28;20509;-54
2023/12/05 08:22:36;;;;;;;3.80;2.77;;;;;;;;;;5087097;28;20450;-53
2023/12/05 08:25:07;;;;;;;3.13;2.37;;;;;;;;;;5087166;28;20451;-55
2023/12/05 08:27:34;;;;;;;14.87;11.97;;;;;;;;;;5086879;28;20468;-54
2023/12/05 08:30:02;;;;;;;23.60;16.60;;;;;;;;;;5086799;28;20458;-54
2023/12/05 08:32:30;;;;;;;30.90;19.50;;;;;;;;;;5087119;28;20747;-54
2023/12/05 08:34:59;;;;;;;12.90;11.60;;;;;;;;;;5087009;28;20998;-53
2023/12/05 08:37:27;;;;;;;14.43;9.93;;;;;;;;;;5086858;28;21065;-54
2023/12/05 08:39:55;;;;;;;7.93;7.13;;;;;;;;;;5086476;28;20450;-53
2023/12/05 08:42:22;;;;;;;8.77;6.63;;;;;;;;;;5086840;28;20462;-54
2023/12/05 08:44:49;;;;;;;13.20;10.53;;;;;;;;;;5087059;28;20454;-54
2023/12/05 08:47:17;;;;;;;11.40;8.33;;;;;;;;;;5086192;28;20999;-55
2023/12/05 08:49:44;;;;;;;12.13;7.37;;;;;;;;;;5085985;28;20447;-54
2023/12/05 08:52:13;;;;;;;7.40;6.70;;;;;;;;;;5083014;28;20518;-54
2023/12/05 08:54:40;;;;;;;7.90;6.90;;;;;;;;;;5067069;28;20454;-54
2023/12/05 08:57:07;;;;;;;9.03;7.93;;;;;;;;;;5066936;28;20491;-54
2023/12/05 08:59:35;;;;;;;8.60;7.30;;;;;;;;;;5066956;28;20494;-54
2023/12/05 09:02:02;;;;;;;8.23;7.07;;;;;;;;;;5084874;28;20447;-54
2023/12/05 09:04:29;;;;;;;7.33;5.57;;;;;;;;;;5086577;28;20448;-54
2023/12/05 09:06:56;;;;;;;7.90;5.23;;;;;;;;;;5086688;28;20486;-55
2023/12/05 09:09:24;;;;;;;6.70;6.00;;;;;;;;;;5086055;28;20493;-54
2023/12/05 09:11:52;;;;;;;22.60;20.03;;;;;;;;;;5086453;28;20569;-55
2023/12/05 09:14:19;;;;;;;32.87;27.30;;;;;;;;;;5086578;28;20811;-54
2023/12/05 09:16:46;;;;;;;38.03;27.57;;;;;;;;;;5086181;28;20482;-54
2023/12/05 09:19:14;;;;;;;27.13;23.40;;;;;;;;;;5085877;28;20443;-54
2023/12/05 09:21:41;;;;;;;23.47;18.13;;;;;;;;;;5086195;28;20500;-54
2023/12/05 09:24:09;;;;;;;19.67;17.50;;;;;;;;;;5085951;28;20446;-56
2023/12/05 09:26:37;;;;;;;40.90;24.67;;;;;;;;;;5086312;28;20436;-54
2023/12/05 09:29:05;;;;;;;26.10;22.87;;;;;;;;;;5071756;28;20474;-55
2023/12/05 09:31:32;;;;;;;21.97;18.80;;;;;;;;;;5072497;28;20447;-53
2023/12/05 09:33:59;;;;;;;24.00;21.50;;;;;;;;;;5072500;28;20505;-54
2023/12/05 09:36:27;;;;;;;23.83;20.77;;;;;;;;;;5072172;28;20998;-54
2023/12/05 09:38:54;;;;;;;22.40;20.10;;;;;;;;;;5072196;28;20472;-54
2023/12/05 09:41:22;;;;;;;45.30;39.17;;;;;;;;;;5072514;28;20444;-54
2023/12/05 09:43:51;;;;;;;31.17;27.87;;;;;;;;;;5072380;28;20527;-54
2023/12/05 09:46:20;;;;;;;51.50;36.40;;;;;;;;;;5072311;28;20520;-54
2023/12/05 09:48:48;;;;;;;20.13;17.97;;;;;;;;;;5071849;28;20897;-54
2023/12/05 09:51:16;;;;;;;18.77;16.90;;;;;;;;;;5056430;28;20451;-53
2023/12/05 09:53:44;;;;;;;21.07;19.07;;;;;;;;;;5072342;28;20527;-55
2023/12/05 09:56:12;;;;;;;19.00;17.13;;;;;;;;;;5072154;28;20479;-54
2023/12/05 09:58:43;;;;;;;21.70;17.87;;;;;;;;;;5071660;28;20468;-54
2023/12/05 10:01:15;;;;;;;20.63;18.53;;;;;;;;;;5072120;28;20509;-54
2023/12/05 10:03:43;;;;;;;20.50;18.50;;;;;;;;;;5072305;28;20949;-54
2023/12/05 10:06:11;;;;;;;23.63;20.70;;;;;;;;;;5071872;28;20506;-56
2023/12/05 10:08:38;;;;;;;16.60;14.23;;;;;;;;;;5071661;28;20973;-54
2023/12/05 10:11:06;;;;;;;17.13;15.43;;;;;;;;;;5071723;28;20894;-55
2023/12/05 10:13:34;;;;;;;16.30;14.70;;;;;;;;;;5072037;28;20830;-53
2023/12/05 10:16:02;;;;;;;15.50;13.93;;;;;;;;;;5072028;28;20453;-55
2023/12/05 10:18:31;;;;;;;14.63;13.13;;;;;;;;;;5071943;28;20472;-54
2023/12/05 10:20:58;;;;;;;13.00;11.60;;;;;;;;;;5072164;28;20440;-54
2023/12/05 10:23:26;;;;;;;13.07;11.77;;;;;;;;;;5072080;28;20492;-54
2023/12/05 10:25:53;;;;;;;11.20;10.00;;;;;;;;;;5071837;28;20900;-54
2023/12/05 10:28:21;;;;;;;14.37;12.73;;;;;;;;;;5071293;28;20468;-54
2023/12/05 10:30:48;;;;;;;14.10;11.83;;;;;;;;;;5071232;28;20864;-55
2023/12/05 10:33:16;;;;;;;10.07;9.13;;;;;;;;;;5071903;28;20436;-56
2023/12/05 10:35:45;;;;;;;8.77;7.87;;;;;;;;;;5071666;28;20441;-54
2023/12/05 10:38:13;;;;;;;7.97;7.20;;;;;;;;;;5065887;28;20566;-55
2023/12/05 10:40:54;;;;;;;8.17;7.37;;;;;;;;;;5053049;28;20499;-54
2023/12/05 10:43:22;;;;;;;8.83;7.93;;;;;;;;;;5055795;28;20444;-55
2023/12/05 10:45:49;;;;;;;11.93;10.70;;;;;;;;;;5062237;28;20950;-54
2023/12/05 10:48:17;;;;;;;13.20;11.80;;;;;;;;;;5063536;28;20510;-54
2023/12/05 10:50:47;;;;;;;11.67;10.47;;;;;;;;;;5071345;28;20452;-54
2023/12/05 10:53:15;;;;;;;11.40;10.30;;;;;;;;;;5071126;28;20436;-55
2023/12/05 10:55:42;;;;;;;11.00;9.90;;;;;;;;;;5071026;28;20877;-54
2023/12/05 10:58:10;;;;;;;12.17;10.70;;;;;;;;;;5070826;28;20570;-54
2023/12/05 11:00:37;;;;;;;11.13;9.90;;;;;;;;;;5055209;28;20452;-55
2023/12/05 11:03:05;;;;;;;9.67;8.53;;;;;;;;;;5064270;28;20440;-54
2023/12/05 11:05:32;;;;;;;8.63;7.73;;;;;;;;;;5071054;28;20494;-54
2023/12/05 11:08:01;;;;;;;10.20;8.70;;;;;;;;;;5053852;28;21039;-54
2023/12/05 11:10:29;;;;;;;9.30;7.33;;;;;;;;;;5064724;28;20448;-55
2023/12/05 11:12:58;;;;;;;9.20;8.30;;;;;;;;;;5066919;28;20450;-54
2023/12/05 11:15:27;;;;;;;8.60;7.73;;;;;;;;;;5061257;28;20439;-55
2023/12/05 11:17:56;;;;;;;8.53;7.37;;;;;;;;;;5059707;28;20726;-54
2023/12/05 11:20:30;;;;;;;9.57;7.80;;;;;;;;;;5070826;28;20449;-54
2023/12/05 11:23:05;;;;;;;10.70;7.93;;;;;;;;;;5070426;28;20453;-54
2023/12/05 11:25:42;;;;;;;8.53;7.63;;;;;;;;;;5070636;28;20562;-54
2023/12/05 11:28:18;;;;;;;8.80;7.70;;;;;;;;;;5061225;28;20471;-54
2023/12/05 11:33:31;;;;;;;8.57;7.73;;;;;;;;;;5093511;27;20628;-54
2023/12/05 11:36:06;;;;;;;8.33;7.53;;;;;;;;;;5087898;28;20505;-54
2023/12/05 11:38:34;;;;;;;10.53;9.43;;;;;;;;;;5083205;28;20457;-54
2023/12/05 11:41:17;;;;;;;11.33;9.10;;;;;;;;;;5079083;28;20438;-54
2023/12/05 11:43:45;;;;;;;13.63;10.00;;;;;;;;;;5076451;28;20835;-54
2023/12/05 11:46:12;;;;;;;16.40;14.73;;;;;;;;;;5074571;28;20466;-54
2023/12/05 11:48:41;;;;;;;16.63;14.80;;;;;;;;;;5075492;28;20826;-55
2023/12/05 11:51:08;;;;;;;13.57;12.10;;;;;;;;;;5074586;28;20463;-55
2023/12/05 11:53:35;;;;;;;13.37;12.10;;;;;;;;;;5078754;28;20437;-54
2023/12/05 11:56:03;;;;;;;12.67;11.37;;;;;;;;;;5076739;28;20498;-54
2023/12/05 11:58:31;;;;;;;12.07;10.97;;;;;;;;;;5081577;28;20986;-54
2023/12/05 12:01:02;;;;;;;12.20;11.00;;;;;;;;;;5085420;28;20496;-54
2023/12/05 12:03:34;;;;;;;11.93;10.77;;;;;;;;;;5080784;28;20483;-54
2023/12/05 12:06:03;;;;;;;11.30;10.20;;;;;;;;;;5077156;28;20471;-56
2023/12/05 12:08:32;;;;;;;14.50;10.83;;;;;;;;;;5078447;28;20460;-54
2023/12/05 12:10:59;;;;;;;11.47;10.30;;;;;;;;;;5069971;28;20441;-54
2023/12/05 12:13:27;;;;;;;13.10;11.90;;;;;;;;;;5066846;28;20568;-55
2023/12/05 12:15:55;;;;;;;12.70;11.40;;;;;;;;;;5078711;28;20444;-55
2023/12/05 12:18:26;;;;;;;12.50;11.20;;;;;;;;;;5083763;28;20470;-54
2023/12/05 12:20:53;;;;;;;11.20;10.00;;;;;;;;;;5078870;28;20448;-54
2023/12/05 12:23:22;;;;;;;12.70;11.40;;;;;;;;;;5084837;28;20493;-55
2023/12/05 12:25:52;;;;;;;12.67;11.40;;;;;;;;;;5084922;28;20933;-57
2023/12/05 12:28:28;;;;;;;11.97;10.73;;;;;;;;;;5073762;28;20509;-54
2023/12/05 12:30:55;;;;;;;12.23;10.93;;;;;;;;;;5085710;28;20447;-54
2023/12/05 12:33:28;;;;;;;13.80;12.40;;;;;;;;;;5085832;28;20996;-54
2023/12/05 12:35:56;;;;;;;14.57;13.10;;;;;;;;;;5085740;28;20573;-55
2023/12/05 12:38:25;;;;;;;15.23;13.63;;;;;;;;;;5085551;28;20564;-54
2023/12/05 12:40:53;;;;;;;13.97;12.57;;;;;;;;;;5085479;28;20444;-54
2023/12/05 12:43:20;;;;;;;11.47;10.17;;;;;;;;;;5076937;28;20557;-54
2023/12/05 12:45:48;;;;;;;10.83;9.73;;;;;;;;;;5058891;28;20877;-54
2023/12/05 12:48:15;;;;;;;11.30;10.10;;;;;;;;;;5058713;28;20458;-55
2023/12/05 12:50:43;;;;;;;11.73;9.93;;;;;;;;;;5052178;28;20449;-54
2023/12/05 12:53:11;;;;;;;10.93;9.90;;;;;;;;;;5071268;28;20511;-55
2023/12/05 12:55:40;;;;;;;11.53;10.43;;;;;;;;;;5065258;28;20442;-54
2023/12/05 12:58:07;;;;;;;11.07;9.90;;;;;;;;;;5063973;28;20484;-54
2023/12/05 13:00:38;;;;;;;11.10;9.97;;;;;;;;;;5071773;28;20461;-54
2023/12/05 13:03:06;;;;;;;11.70;10.23;;;;;;;;;;5070244;28;20442;-53
2023/12/05 13:05:33;;;;;;;10.10;9.10;;;;;;;;;;5071069;28;20445;-55
2023/12/05 13:08:01;;;;;;;10.93;9.73;;;;;;;;;;5070512;28;20522;-54
2023/12/05 13:10:29;;;;;;;11.30;10.20;;;;;;;;;;5071596;28;20448;-54
2023/12/05 13:12:58;;;;;;;12.00;10.93;;;;;;;;;;5071135;28;20519;-54
2023/12/05 13:15:27;;;;;;;13.40;12.10;;;;;;;;;;5070715;28;20460;-54
2023/12/05 13:17:58;;;;;;;13.70;12.50;;;;;;;;;;5071073;28;20569;-53
2023/12/05 13:20:26;;;;;;;13.50;12.20;;;;;;;;;;5071775;28;20535;-54
2023/12/05 13:22:53;;;;;;;15.47;13.97;;;;;;;;;;5071644;28;21139;-54
2023/12/05 13:25:21;;;;;;;18.60;16.40;;;;;;;;;;5071765;28;20445;-55
2023/12/05 13:27:49;;;;;;;19.40;14.57;;;;;;;;;;5071000;28;20989;-54
2023/12/05 13:30:19;;;;;;;16.10;14.50;;;;;;;;;;5064389;28;20592;-55
2023/12/05 13:32:46;;;;;;;15.30;13.90;;;;;;;;;;5071189;28;20515;-54
2023/12/05 13:35:14;;;;;;;15.07;13.50;;;;;;;;;;5071732;28;20440;-54
2023/12/05 13:37:42;;;;;;;17.40;15.33;;;;;;;;;;5071411;28;20967;-54
2023/12/05 13:40:10;;;;;;;17.20;15.40;;;;;;;;;;5070983;28;21061;-55
2023/12/05 13:42:38;;;;;;;16.50;14.90;;;;;;;;;;5070958;28;20469;-55
2023/12/05 13:45:05;;;;;;;15.90;13.00;;;;;;;;;;5071243;28;20450;-55
2023/12/05 13:47:34;;;;;;;15.27;13.77;;;;;;;;;;5124785;22;21023;-53
2023/12/05 13:50:05;;;;;;;16.20;14.10;;;;;;;;;;5011195;28;20484;-56
2023/12/05 13:52:32;;;;;;;15.30;13.60;;;;;;;;;;5013417;28;20793;-54
2023/12/05 13:55:00;;;;;;;14.67;12.97;;;;;;;;;;5009834;28;20448;-55
2023/12/05 13:57:27;;;;;;;16.30;13.97;;;;;;;;;;5010268;28;20519;-55
2023/12/05 13:59:54;;;;;;;15.80;14.20;;;;;;;;;;5004904;28;20455;-53
2023/12/05 14:02:22;;;;;;;14.07;12.77;;;;;;;;;;5011896;28;20805;-55
2023/12/05 14:04:50;;;;;;;14.70;13.30;;;;;;;;;;5011507;28;20441;-53
2023/12/05 14:07:18;;;;;;;14.60;13.10;;;;;;;;;;5011452;28;20546;-53
2023/12/05 14:09:45;;;;;;;15.43;12.73;;;;;;;;;;5011056;28;20510;-54
2023/12/05 14:12:12;;;;;;;15.87;14.17;;;;;;;;;;5011305;28;20483;-53
2023/12/05 14:14:41;;;;;;;13.47;12.17;;;;;;;;;;5011612;28;20453;-56
2023/12/05 14:17:09;;;;;;;15.87;14.30;;;;;;;;;;5011266;28;20464;-56
2023/12/05 14:19:36;;;;;;;14.10;12.60;;;;;;;;;;5011590;28;20451;-55
2023/12/05 14:22:05;;;;;;;15.23;13.73;;;;;;;;;;5011449;28;20443;-54
2023/12/05 14:24:32;;;;;;;15.20;13.70;;;;;;;;;;5011564;28;20478;-54
2023/12/05 14:26:59;;;;;;;16.43;14.73;;;;;;;;;;5011051;28;20454;-53
2023/12/05 14:29:27;;;;;;;16.13;14.63;;;;;;;;;;5011275;28;20447;-53
2023/12/05 14:31:54;;;;;;;14.50;13.00;;;;;;;;;;5011203;28;20527;-54
2023/12/05 14:34:21;;;;;;;14.40;13.00;;;;;;;;;;5011397;28;20455;-56
2023/12/05 14:36:49;;;;;;;14.20;12.63;;;;;;;;;;5011051;28;20452;-55
2023/12/05 14:39:19;;;;;;;13.37;11.60;;;;;;;;;;5010860;28;20464;-53
2023/12/05 14:41:48;;;;;;;11.90;10.70;;;;;;;;;;5011203;28;20444;-53
2023/12/05 14:44:15;;;;;;;10.97;9.97;;;;;;;;;;5010986;28;20884;-53
2023/12/05 14:46:43;;;;;;;12.70;10.20;;;;;;;;;;5011098;28;20445;-54
2023/12/05 14:49:12;;;;;;;11.87;10.67;;;;;;;;;;5009955;28;20475;-53
2023/12/05 14:51:39;;;;;;;12.50;11.23;;;;;;;;;;5009943;28;20912;-54
2023/12/05 14:54:07;;;;;;;13.23;11.90;;;;;;;;;;5010314;28;20566;-54
2023/12/05 14:56:36;;;;;;;17.00;14.73;;;;;;;;;;5011018;28;20461;-54
2023/12/05 14:59:04;;;;;;;15.90;13.63;;;;;;;;;;5010281;28;20470;-54
2023/12/05 15:01:31;;;;;;;21.77;17.87;;;;;;;;;;5010625;28;20942;-53